sensor_id;sensor_type;location;lat;lon;timestamp;P1;durP1;ratioP1;P2;durP2;ratioP2
3943;SDS011;1986;52.546;13.428;2023-08-31T00:02:01;22.30;;;21.00;;
3943;SDS011;1986;52.546;13.428;2023-08-31T00:04:29;22.50;;;21.20;;
3943;SDS011;1986;52.546;13.428;2023-08-31T00:06:56;26.87;;;24.77;;
3943;SDS011;1986;52.546;13.428;2023-08-31T00:09:23;22.00;;;20.70;;
3943;SDS011;1986;52.546;13.428;2023-08-31T00:11:52;21.90;;;20.60;;
3943;SDS011;1986;52.546;13.428;2023-08-31T00:14:19;23.40;;;22.00;;
3943;SDS011;1986;52.546;13.428;2023-08-31T00:16:49;22.43;;;21.23;;
3943;SDS011;1986;52.546;13.428;2023-08-31T00:19:17;23.90;;;22.40;;
3943;SDS011;1986;52.546;13.428;2023-08-31T00:21:44;26.20;;;24.70;;
3943;SDS011;1986;52.546;13.428;2023-08-31T00:24:11;21.87;;;20.57;;
3943;SDS011;1986;52.546;13.428;2023-08-31T00:26:39;22.80;;;21.50;;
3943;SDS011;1986;52.546;13.428;2023-08-31T00:29:08;23.13;;;21.73;;
3943;SDS011;1986;52.546;13.428;2023-08-31T00:31:39;23.40;;;21.90;;
3943;SDS011;1986;52.546;13.428;2023-08-31T00:34:07;23.47;;;21.97;;
3943;SDS011;1986;52.546;13.428;2023-08-31T00:36:36;25.53;;;24.13;;
3943;SDS011;1986;52.546;13.428;2023-08-31T00:39:04;21.80;;;20.50;;
3943;SDS011;1986;52.546;13.428;2023-08-31T00:41:35;22.80;;;21.30;;
3943;SDS011;1986;52.546;13.428;2023-08-31T00:44:03;21.70;;;20.40;;
3943;SDS011;1986;52.546;13.428;2023-08-31T00:46:32;21.30;;;20.10;;
3943;SDS011;1986;52.546;13.428;2023-08-31T00:48:59;23.77;;;22.47;;
3943;SDS011;1986;52.546;13.428;2023-08-31T00:51:29;23.73;;;22.03;;
3943;SDS011;1986;52.546;13.428;2023-08-31T00:54:00;22.40;;;21.00;;
3943;SDS011;1986;52.546;13.428;2023-08-31T00:56:35;22.00;;;20.70;;
3943;SDS011;1986;52.546;13.428;2023-08-31T00:59:04;21.20;;;20.00;;
3943;SDS011;1986;52.546;13.428;2023-08-31T01:01:35;22.57;;;21.17;;
3943;SDS011;1986;52.546;13.428;2023-08-31T01:04:08;23.10;;;21.70;;
3943;SDS011;1986;52.546;13.428;2023-08-31T01:06:40;21.40;;;20.10;;
3943;SDS011;1986;52.546;13.428;2023-08-31T01:09:20;21.87;;;20.27;;
3943;SDS011;1986;52.546;13.428;2023-08-31T01:11:53;20.97;;;19.77;;
3943;SDS011;1986;52.546;13.428;2023-08-31T01:14:23;19.40;;;18.30;;
3943;SDS011;1986;52.546;13.428;2023-08-31T01:16:53;22.10;;;20.80;;
3943;SDS011;1986;52.546;13.428;2023-08-31T01:19:25;21.07;;;19.77;;
3943;SDS011;1986;52.546;13.428;2023-08-31T01:21:57;20.53;;;19.13;;
3943;SDS011;1986;52.546;13.428;2023-08-31T01:24:30;19.47;;;18.37;;
3943;SDS011;1986;52.546;13.428;2023-08-31T01:26:58;19.27;;;18.17;;
3943;SDS011;1986;52.546;13.428;2023-08-31T01:29:25;20.77;;;19.00;;
3943;SDS011;1986;52.546;13.428;2023-08-31T01:31:53;22.10;;;20.37;;
3943;SDS011;1986;52.546;13.428;2023-08-31T01:34:20;20.27;;;18.90;;
3943;SDS011;1986;52.546;13.428;2023-08-31T01:36:49;19.07;;;17.70;;
3943;SDS011;1986;52.546;13.428;2023-08-31T01:39:20;18.93;;;17.73;;
3943;SDS011;1986;52.546;13.428;2023-08-31T01:41:55;19.80;;;17.90;;
3943;SDS011;1986;52.546;13.428;2023-08-31T01:44:23;20.17;;;18.90;;
3943;SDS011;1986;52.546;13.428;2023-08-31T01:46:51;18.73;;;17.47;;
3943;SDS011;1986;52.546;13.428;2023-08-31T01:49:19;19.10;;;17.50;;
3943;SDS011;1986;52.546;13.428;2023-08-31T01:51:46;19.50;;;18.03;;
3943;SDS011;1986;52.546;13.428;2023-08-31T01:54:13;18.27;;;17.27;;
3943;SDS011;1986;52.546;13.428;2023-08-31T01:56:41;17.00;;;16.10;;
3943;SDS011;1986;52.546;13.428;2023-08-31T01:59:09;17.50;;;16.60;;
3943;SDS011;1986;52.546;13.428;2023-08-31T02:01:37;16.77;;;15.87;;
3943;SDS011;1986;52.546;13.428;2023-08-31T02:04:06;17.97;;;16.90;;
3943;SDS011;1986;52.546;13.428;2023-08-31T02:06:33;15.30;;;14.60;;
3943;SDS011;1986;52.546;13.428;2023-08-31T02:09:00;16.97;;;15.80;;
3943;SDS011;1986;52.546;13.428;2023-08-31T02:11:28;16.67;;;15.83;;
3943;SDS011;1986;52.546;13.428;2023-08-31T02:13:56;17.33;;;16.43;;
3943;SDS011;1986;52.546;13.428;2023-08-31T02:16:25;16.40;;;15.23;;
3943;SDS011;1986;52.546;13.428;2023-08-31T02:18:52;14.97;;;14.27;;
3943;SDS011;1986;52.546;13.428;2023-08-31T02:21:19;15.93;;;15.13;;
3943;SDS011;1986;52.546;13.428;2023-08-31T02:23:49;15.73;;;14.93;;
3943;SDS011;1986;52.546;13.428;2023-08-31T02:26:20;16.33;;;15.53;;
3943;SDS011;1986;52.546;13.428;2023-08-31T02:28:47;15.50;;;14.80;;
3943;SDS011;1986;52.546;13.428;2023-08-31T02:31:16;17.03;;;16.10;;
3943;SDS011;1986;52.546;13.428;2023-08-31T02:33:46;16.23;;;15.43;;
3943;SDS011;1986;52.546;13.428;2023-08-31T02:36:14;16.60;;;15.70;;
3943;SDS011;1986;52.546;13.428;2023-08-31T02:38:42;16.23;;;15.23;;
3943;SDS011;1986;52.546;13.428;2023-08-31T02:41:09;17.13;;;16.30;;
3943;SDS011;1986;52.546;13.428;2023-08-31T02:43:36;17.80;;;16.90;;
3943;SDS011;1986;52.546;13.428;2023-08-31T02:46:04;19.10;;;17.83;;
3943;SDS011;1986;52.546;13.428;2023-08-31T02:48:32;17.43;;;16.43;;
3943;SDS011;1986;52.546;13.428;2023-08-31T02:51:03;16.20;;;15.40;;
3943;SDS011;1986;52.546;13.428;2023-08-31T02:53:30;18.30;;;16.70;;
3943;SDS011;1986;52.546;13.428;2023-08-31T02:55:57;16.00;;;15.30;;
3943;SDS011;1986;52.546;13.428;2023-08-31T02:58:24;18.03;;;16.93;;
3943;SDS011;1986;52.546;13.428;2023-08-31T03:00:52;16.80;;;15.80;;
3943;SDS011;1986;52.546;13.428;2023-08-31T03:03:19;16.00;;;15.20;;
3943;SDS011;1986;52.546;13.428;2023-08-31T03:05:46;17.13;;;16.03;;
3943;SDS011;1986;52.546;13.428;2023-08-31T03:08:15;17.30;;;16.37;;
3943;SDS011;1986;52.546;13.428;2023-08-31T03:10:41;17.10;;;16.20;;
3943;SDS011;1986;52.546;13.428;2023-08-31T03:13:11;15.80;;;15.10;;
3943;SDS011;1986;52.546;13.428;2023-08-31T03:15:38;15.70;;;15.00;;
3943;SDS011;1986;52.546;13.428;2023-08-31T03:18:05;15.97;;;15.27;;
3943;SDS011;1986;52.546;13.428;2023-08-31T03:20:36;18.33;;;17.23;;
3943;SDS011;1986;52.546;13.428;2023-08-31T03:23:03;17.60;;;16.70;;
3943;SDS011;1986;52.546;13.428;2023-08-31T03:25:33;17.90;;;16.07;;
3943;SDS011;1986;52.546;13.428;2023-08-31T03:28:00;16.93;;;15.93;;
3943;SDS011;1986;52.546;13.428;2023-08-31T03:30:28;16.90;;;16.10;;
3943;SDS011;1986;52.546;13.428;2023-08-31T03:32:55;17.53;;;16.57;;
3943;SDS011;1986;52.546;13.428;2023-08-31T03:35:22;16.10;;;15.30;;
3943;SDS011;1986;52.546;13.428;2023-08-31T03:37:52;16.63;;;15.73;;
3943;SDS011;1986;52.546;13.428;2023-08-31T03:40:19;16.40;;;15.60;;
3943;SDS011;1986;52.546;13.428;2023-08-31T03:42:47;16.60;;;15.80;;
3943;SDS011;1986;52.546;13.428;2023-08-31T03:45:15;17.00;;;16.10;;
3943;SDS011;1986;52.546;13.428;2023-08-31T03:47:44;16.67;;;15.83;;
3943;SDS011;1986;52.546;13.428;2023-08-31T03:50:17;16.70;;;15.90;;
3943;SDS011;1986;52.546;13.428;2023-08-31T03:52:44;19.27;;;18.23;;
3943;SDS011;1986;52.546;13.428;2023-08-31T03:55:11;16.13;;;15.43;;
3943;SDS011;1986;52.546;13.428;2023-08-31T03:57:38;15.47;;;14.77;;
3943;SDS011;1986;52.546;13.428;2023-08-31T04:00:12;16.10;;;15.37;;
3943;SDS011;1986;52.546;13.428;2023-08-31T04:02:41;17.07;;;16.20;;
3943;SDS011;1986;52.546;13.428;2023-08-31T04:05:08;16.57;;;15.80;;
3943;SDS011;1986;52.546;13.428;2023-08-31T04:07:40;16.53;;;15.73;;
3943;SDS011;1986;52.546;13.428;2023-08-31T04:10:07;16.33;;;15.53;;
3943;SDS011;1986;52.546;13.428;2023-08-31T04:12:34;18.00;;;14.60;;
3943;SDS011;1986;52.546;13.428;2023-08-31T04:15:01;15.00;;;14.37;;
3943;SDS011;1986;52.546;13.428;2023-08-31T04:17:31;16.37;;;15.37;;
3943;SDS011;1986;52.546;13.428;2023-08-31T04:19:58;13.83;;;13.23;;
3943;SDS011;1986;52.546;13.428;2023-08-31T04:22:25;13.23;;;12.67;;
3943;SDS011;1986;52.546;13.428;2023-08-31T04:24:52;13.67;;;13.07;;
3943;SDS011;1986;52.546;13.428;2023-08-31T04:27:19;13.43;;;12.73;;
3943;SDS011;1986;52.546;13.428;2023-08-31T04:29:46;13.90;;;13.23;;
3943;SDS011;1986;52.546;13.428;2023-08-31T04:32:13;12.53;;;12.00;;
3943;SDS011;1986;52.546;13.428;2023-08-31T04:34:44;12.47;;;11.87;;
3943;SDS011;1986;52.546;13.428;2023-08-31T04:37:11;13.83;;;13.00;;
3943;SDS011;1986;52.546;13.428;2023-08-31T04:39:39;13.23;;;12.60;;
3943;SDS011;1986;52.546;13.428;2023-08-31T04:42:08;13.30;;;12.30;;
3943;SDS011;1986;52.546;13.428;2023-08-31T04:44:37;12.57;;;11.90;;
3943;SDS011;1986;52.546;13.428;2023-08-31T04:47:04;11.37;;;10.77;;
3943;SDS011;1986;52.546;13.428;2023-08-31T04:49:31;11.20;;;10.60;;
3943;SDS011;1986;52.546;13.428;2023-08-31T04:52:01;12.00;;;11.07;;
3943;SDS011;1986;52.546;13.428;2023-08-31T04:54:30;11.53;;;10.93;;
3943;SDS011;1986;52.546;13.428;2023-08-31T04:56:57;11.73;;;10.93;;
3943;SDS011;1986;52.546;13.428;2023-08-31T04:59:24;11.60;;;11.10;;
3943;SDS011;1986;52.546;13.428;2023-08-31T05:01:51;11.00;;;10.10;;
3943;SDS011;1986;52.546;13.428;2023-08-31T05:04:18;11.60;;;9.43;;
3943;SDS011;1986;52.546;13.428;2023-08-31T05:06:45;10.83;;;9.43;;
3943;SDS011;1986;52.546;13.428;2023-08-31T05:09:13;10.63;;;9.63;;
3943;SDS011;1986;52.546;13.428;2023-08-31T05:11:40;10.50;;;9.87;;
3943;SDS011;1986;52.546;13.428;2023-08-31T05:14:07;20.23;;;11.33;;
3943;SDS011;1986;52.546;13.428;2023-08-31T05:16:34;14.63;;;13.23;;
3943;SDS011;1986;52.546;13.428;2023-08-31T05:19:01;10.43;;;9.53;;
3943;SDS011;1986;52.546;13.428;2023-08-31T05:21:28;8.60;;;7.90;;
3943;SDS011;1986;52.546;13.428;2023-08-31T05:23:55;17.43;;;9.07;;
3943;SDS011;1986;52.546;13.428;2023-08-31T05:26:23;10.63;;;9.60;;
3943;SDS011;1986;52.546;13.428;2023-08-31T05:28:50;8.17;;;7.77;;
3943;SDS011;1986;52.546;13.428;2023-08-31T05:31:17;9.50;;;8.90;;
3943;SDS011;1986;52.546;13.428;2023-08-31T05:33:44;9.70;;;9.00;;
3943;SDS011;1986;52.546;13.428;2023-08-31T05:36:11;11.10;;;9.40;;
3943;SDS011;1986;52.546;13.428;2023-08-31T05:38:38;12.37;;;11.27;;
3943;SDS011;1986;52.546;13.428;2023-08-31T05:41:12;12.33;;;10.97;;
3943;SDS011;1986;52.546;13.428;2023-08-31T05:43:40;10.40;;;9.90;;
3943;SDS011;1986;52.546;13.428;2023-08-31T05:46:08;15.40;;;12.10;;
3943;SDS011;1986;52.546;13.428;2023-08-31T05:48:43;11.87;;;11.03;;
3943;SDS011;1986;52.546;13.428;2023-08-31T05:51:22;10.97;;;10.40;;
3943;SDS011;1986;52.546;13.428;2023-08-31T05:53:49;11.43;;;10.63;;
3943;SDS011;1986;52.546;13.428;2023-08-31T05:56:17;13.73;;;10.70;;
3943;SDS011;1986;52.546;13.428;2023-08-31T05:58:46;9.93;;;9.20;;
3943;SDS011;1986;52.546;13.428;2023-08-31T06:01:15;14.30;;;12.20;;
3943;SDS011;1986;52.546;13.428;2023-08-31T06:03:42;10.13;;;9.60;;
3943;SDS011;1986;52.546;13.428;2023-08-31T06:06:09;13.63;;;12.40;;
3943;SDS011;1986;52.546;13.428;2023-08-31T06:08:36;12.90;;;12.10;;
3943;SDS011;1986;52.546;13.428;2023-08-31T06:11:03;13.20;;;11.10;;
3943;SDS011;1986;52.546;13.428;2023-08-31T06:13:31;12.57;;;11.73;;
3943;SDS011;1986;52.546;13.428;2023-08-31T06:15:59;13.07;;;12.17;;
3943;SDS011;1986;52.546;13.428;2023-08-31T06:18:26;13.67;;;12.63;;
3943;SDS011;1986;52.546;13.428;2023-08-31T06:20:53;14.23;;;13.43;;
3943;SDS011;1986;52.546;13.428;2023-08-31T06:23:25;12.33;;;11.53;;
3943;SDS011;1986;52.546;13.428;2023-08-31T06:25:52;12.47;;;11.93;;
3943;SDS011;1986;52.546;13.428;2023-08-31T06:28:19;15.97;;;14.70;;
3943;SDS011;1986;52.546;13.428;2023-08-31T06:30:46;14.27;;;13.30;;
3943;SDS011;1986;52.546;13.428;2023-08-31T06:33:15;16.43;;;15.33;;
3943;SDS011;1986;52.546;13.428;2023-08-31T06:35:44;18.97;;;17.07;;
3943;SDS011;1986;52.546;13.428;2023-08-31T06:38:11;15.47;;;14.50;;
3943;SDS011;1986;52.546;13.428;2023-08-31T06:40:38;16.17;;;15.00;;
3943;SDS011;1986;52.546;13.428;2023-08-31T06:43:07;15.90;;;14.90;;
3943;SDS011;1986;52.546;13.428;2023-08-31T06:45:34;16.07;;;14.87;;
3943;SDS011;1986;52.546;13.428;2023-08-31T06:48:01;15.57;;;14.73;;
3943;SDS011;1986;52.546;13.428;2023-08-31T06:50:32;15.93;;;14.87;;
3943;SDS011;1986;52.546;13.428;2023-08-31T06:53:00;15.90;;;14.83;;
3943;SDS011;1986;52.546;13.428;2023-08-31T06:55:28;16.43;;;15.47;;
3943;SDS011;1986;52.546;13.428;2023-08-31T06:57:58;15.40;;;14.47;;
3943;SDS011;1986;52.546;13.428;2023-08-31T07:00:25;15.33;;;14.33;;
3943;SDS011;1986;52.546;13.428;2023-08-31T07:02:53;19.77;;;18.13;;
3943;SDS011;1986;52.546;13.428;2023-08-31T07:05:24;18.07;;;16.47;;
3943;SDS011;1986;52.546;13.428;2023-08-31T07:07:53;21.47;;;19.50;;
3943;SDS011;1986;52.546;13.428;2023-08-31T07:10:20;16.57;;;15.70;;
3943;SDS011;1986;52.546;13.428;2023-08-31T07:12:47;19.67;;;18.30;;
3943;SDS011;1986;52.546;13.428;2023-08-31T07:15:15;18.10;;;17.00;;
3943;SDS011;1986;52.546;13.428;2023-08-31T07:17:42;17.93;;;16.93;;
3943;SDS011;1986;52.546;13.428;2023-08-31T07:20:10;19.20;;;17.90;;
3943;SDS011;1986;52.546;13.428;2023-08-31T07:22:38;17.97;;;16.83;;
3943;SDS011;1986;52.546;13.428;2023-08-31T07:25:08;19.60;;;18.37;;
3943;SDS011;1986;52.546;13.428;2023-08-31T07:27:35;19.20;;;17.83;;
3943;SDS011;1986;52.546;13.428;2023-08-31T07:30:03;22.67;;;20.80;;
3943;SDS011;1986;52.546;13.428;2023-08-31T07:32:31;25.33;;;20.63;;
3943;SDS011;1986;52.546;13.428;2023-08-31T07:34:58;20.83;;;19.30;;
3943;SDS011;1986;52.546;13.428;2023-08-31T07:37:26;20.07;;;18.70;;
3943;SDS011;1986;52.546;13.428;2023-08-31T07:39:53;20.70;;;18.97;;
3943;SDS011;1986;52.546;13.428;2023-08-31T07:42:25;19.87;;;18.27;;
3943;SDS011;1986;52.546;13.428;2023-08-31T07:44:52;21.87;;;20.27;;
3943;SDS011;1986;52.546;13.428;2023-08-31T07:47:20;22.17;;;20.77;;
3943;SDS011;1986;52.546;13.428;2023-08-31T07:49:47;21.53;;;20.10;;
3943;SDS011;1986;52.546;13.428;2023-08-31T07:52:14;25.37;;;19.90;;
3943;SDS011;1986;52.546;13.428;2023-08-31T07:54:41;20.23;;;19.13;;
3943;SDS011;1986;52.546;13.428;2023-08-31T07:57:09;23.57;;;21.50;;
3943;SDS011;1986;52.546;13.428;2023-08-31T07:59:38;20.50;;;19.20;;
3943;SDS011;1986;52.546;13.428;2023-08-31T08:02:05;22.97;;;21.33;;
3943;SDS011;1986;52.546;13.428;2023-08-31T08:04:32;23.80;;;21.63;;
3943;SDS011;1986;52.546;13.428;2023-08-31T08:06:59;24.17;;;20.83;;
3943;SDS011;1986;52.546;13.428;2023-08-31T08:09:28;22.80;;;21.20;;
3943;SDS011;1986;52.546;13.428;2023-08-31T08:12:09;22.47;;;21.03;;
3943;SDS011;1986;52.546;13.428;2023-08-31T08:14:38;27.00;;;24.40;;
3943;SDS011;1986;52.546;13.428;2023-08-31T08:17:05;22.60;;;21.10;;
3943;SDS011;1986;52.546;13.428;2023-08-31T08:19:32;23.07;;;21.53;;
3943;SDS011;1986;52.546;13.428;2023-08-31T08:22:00;22.30;;;20.90;;
3943;SDS011;1986;52.546;13.428;2023-08-31T08:24:27;23.07;;;21.37;;
3943;SDS011;1986;52.546;13.428;2023-08-31T08:26:55;24.13;;;22.40;;
3943;SDS011;1986;52.546;13.428;2023-08-31T08:29:22;23.33;;;21.83;;
3943;SDS011;1986;52.546;13.428;2023-08-31T08:31:51;23.10;;;21.07;;
3943;SDS011;1986;52.546;13.428;2023-08-31T08:34:18;23.20;;;21.60;;
3943;SDS011;1986;52.546;13.428;2023-08-31T08:36:45;23.00;;;21.40;;
3943;SDS011;1986;52.546;13.428;2023-08-31T08:39:13;23.40;;;21.70;;
3943;SDS011;1986;52.546;13.428;2023-08-31T08:41:40;22.70;;;21.30;;
3943;SDS011;1986;52.546;13.428;2023-08-31T08:44:08;24.23;;;22.63;;
3943;SDS011;1986;52.546;13.428;2023-08-31T08:46:35;22.70;;;21.20;;
3943;SDS011;1986;52.546;13.428;2023-08-31T08:49:05;23.90;;;22.20;;
3943;SDS011;1986;52.546;13.428;2023-08-31T08:51:33;22.13;;;20.83;;
3943;SDS011;1986;52.546;13.428;2023-08-31T08:54:03;23.53;;;21.83;;
3943;SDS011;1986;52.546;13.428;2023-08-31T08:56:31;23.97;;;22.37;;
3943;SDS011;1986;52.546;13.428;2023-08-31T08:58:59;24.00;;;22.20;;
3943;SDS011;1986;52.546;13.428;2023-08-31T09:01:26;23.27;;;21.73;;
3943;SDS011;1986;52.546;13.428;2023-08-31T09:03:54;23.67;;;22.17;;
3943;SDS011;1986;52.546;13.428;2023-08-31T09:06:23;22.70;;;21.30;;
3943;SDS011;1986;52.546;13.428;2023-08-31T09:08:53;22.83;;;21.33;;
3943;SDS011;1986;52.546;13.428;2023-08-31T09:11:22;24.57;;;22.97;;
3943;SDS011;1986;52.546;13.428;2023-08-31T09:13:52;24.27;;;22.77;;
3943;SDS011;1986;52.546;13.428;2023-08-31T09:16:23;25.00;;;23.10;;
3943;SDS011;1986;52.546;13.428;2023-08-31T09:18:51;24.03;;;22.43;;
3943;SDS011;1986;52.546;13.428;2023-08-31T09:21:18;25.00;;;22.80;;
3943;SDS011;1986;52.546;13.428;2023-08-31T09:23:54;24.03;;;22.43;;
3943;SDS011;1986;52.546;13.428;2023-08-31T09:26:25;25.87;;;24.13;;
3943;SDS011;1986;52.546;13.428;2023-08-31T09:28:52;25.10;;;23.30;;
3943;SDS011;1986;52.546;13.428;2023-08-31T09:31:20;24.73;;;23.03;;
3943;SDS011;1986;52.546;13.428;2023-08-31T09:33:50;24.83;;;23.00;;
3943;SDS011;1986;52.546;13.428;2023-08-31T09:36:19;24.40;;;22.70;;
3943;SDS011;1986;52.546;13.428;2023-08-31T09:38:51;24.20;;;22.50;;
3943;SDS011;1986;52.546;13.428;2023-08-31T09:41:18;25.07;;;23.23;;
3943;SDS011;1986;52.546;13.428;2023-08-31T09:43:45;24.17;;;22.57;;
3943;SDS011;1986;52.546;13.428;2023-08-31T09:46:15;31.83;;;24.10;;
3943;SDS011;1986;52.546;13.428;2023-08-31T09:48:45;23.60;;;22.10;;
3943;SDS011;1986;52.546;13.428;2023-08-31T09:51:13;23.63;;;22.13;;
3943;SDS011;1986;52.546;13.428;2023-08-31T09:53:42;25.23;;;23.43;;
3943;SDS011;1986;52.546;13.428;2023-08-31T09:56:13;25.33;;;23.60;;
3943;SDS011;1986;52.546;13.428;2023-08-31T09:58:43;25.23;;;23.53;;
3943;SDS011;1986;52.546;13.428;2023-08-31T10:01:11;27.23;;;22.43;;
3943;SDS011;1986;52.546;13.428;2023-08-31T10:03:38;23.30;;;21.60;;
3943;SDS011;1986;52.546;13.428;2023-08-31T10:06:06;24.80;;;22.90;;
3943;SDS011;1986;52.546;13.428;2023-08-31T10:08:34;28.70;;;26.70;;
3943;SDS011;1986;52.546;13.428;2023-08-31T10:11:01;26.00;;;24.10;;
3943;SDS011;1986;52.546;13.428;2023-08-31T10:13:32;25.10;;;23.30;;
3943;SDS011;1986;52.546;13.428;2023-08-31T10:16:01;25.37;;;23.37;;
3943;SDS011;1986;52.546;13.428;2023-08-31T10:18:29;28.03;;;23.40;;
3943;SDS011;1986;52.546;13.428;2023-08-31T10:20:56;25.10;;;23.10;;
3943;SDS011;1986;52.546;13.428;2023-08-31T10:23:24;25.70;;;23.90;;
3943;SDS011;1986;52.546;13.428;2023-08-31T10:26:01;25.00;;;23.10;;
3943;SDS011;1986;52.546;13.428;2023-08-31T10:28:28;24.90;;;23.10;;
3943;SDS011;1986;52.546;13.428;2023-08-31T10:31:03;25.03;;;23.23;;
3943;SDS011;1986;52.546;13.428;2023-08-31T10:33:31;25.10;;;23.30;;
3943;SDS011;1986;52.546;13.428;2023-08-31T10:35:59;26.97;;;24.87;;
3943;SDS011;1986;52.546;13.428;2023-08-31T10:38:29;29.27;;;27.27;;
3943;SDS011;1986;52.546;13.428;2023-08-31T10:41:16;33.00;;;31.00;;
3943;SDS011;1986;52.546;13.428;2023-08-31T10:43:47;45.33;;;42.33;;
3943;SDS011;1986;52.546;13.428;2023-08-31T10:46:24;43.73;;;40.80;;
3943;SDS011;1986;52.546;13.428;2023-08-31T10:48:52;39.00;;;36.50;;
3943;SDS011;1986;52.546;13.428;2023-08-31T10:51:23;31.90;;;29.90;;
3943;SDS011;1986;52.546;13.428;2023-08-31T10:53:51;30.33;;;28.47;;
3943;SDS011;1986;52.546;13.428;2023-08-31T10:56:18;27.10;;;25.00;;
3943;SDS011;1986;52.546;13.428;2023-08-31T10:58:58;24.07;;;22.63;;
3943;SDS011;1986;52.546;13.428;2023-08-31T11:04:13;20.80;;;19.60;;
3943;SDS011;1986;52.546;13.428;2023-08-31T11:06:40;18.30;;;17.40;;
3943;SDS011;1986;52.546;13.428;2023-08-31T11:09:17;22.60;;;21.37;;
3943;SDS011;1986;52.546;13.428;2023-08-31T11:11:45;21.73;;;20.03;;
3943;SDS011;1986;52.546;13.428;2023-08-31T11:14:13;21.63;;;20.30;;
3943;SDS011;1986;52.546;13.428;2023-08-31T11:16:40;21.07;;;19.87;;
3943;SDS011;1986;52.546;13.428;2023-08-31T11:19:10;21.20;;;19.90;;
3943;SDS011;1986;52.546;13.428;2023-08-31T11:21:43;22.00;;;20.70;;
3943;SDS011;1986;52.546;13.428;2023-08-31T11:24:10;23.60;;;22.20;;
3943;SDS011;1986;52.546;13.428;2023-08-31T11:26:38;27.27;;;25.33;;
3943;SDS011;1986;52.546;13.428;2023-08-31T11:29:06;23.20;;;21.40;;
3943;SDS011;1986;52.546;13.428;2023-08-31T11:31:37;23.67;;;22.10;;
3943;SDS011;1986;52.546;13.428;2023-08-31T11:34:05;22.77;;;21.30;;
3943;SDS011;1986;52.546;13.428;2023-08-31T11:36:34;24.70;;;23.20;;
3943;SDS011;1986;52.546;13.428;2023-08-31T11:39:05;24.63;;;23.03;;
3943;SDS011;1986;52.546;13.428;2023-08-31T11:41:33;23.73;;;22.23;;
3943;SDS011;1986;52.546;13.428;2023-08-31T11:44:02;25.10;;;23.30;;
3943;SDS011;1986;52.546;13.428;2023-08-31T11:46:29;25.50;;;23.80;;
3943;SDS011;1986;52.546;13.428;2023-08-31T11:48:58;24.93;;;23.23;;
3943;SDS011;1986;52.546;13.428;2023-08-31T11:51:26;25.90;;;23.90;;
3943;SDS011;1986;52.546;13.428;2023-08-31T11:53:55;24.60;;;23.00;;
3943;SDS011;1986;52.546;13.428;2023-08-31T11:56:26;25.43;;;23.53;;
3943;SDS011;1986;52.546;13.428;2023-08-31T11:58:53;24.27;;;22.57;;
3943;SDS011;1986;52.546;13.428;2023-08-31T12:01:20;23.97;;;22.17;;
3943;SDS011;1986;52.546;13.428;2023-08-31T12:03:48;25.20;;;23.53;;
3943;SDS011;1986;52.546;13.428;2023-08-31T12:06:15;23.77;;;22.17;;
3943;SDS011;1986;52.546;13.428;2023-08-31T12:08:43;23.80;;;22.10;;
3943;SDS011;1986;52.546;13.428;2023-08-31T12:11:12;24.27;;;22.57;;
3943;SDS011;1986;52.546;13.428;2023-08-31T12:13:41;23.10;;;21.60;;
3943;SDS011;1986;52.546;13.428;2023-08-31T12:16:12;24.77;;;22.97;;
3943;SDS011;1986;52.546;13.428;2023-08-31T12:18:41;24.20;;;22.60;;
3943;SDS011;1986;52.546;13.428;2023-08-31T12:21:08;24.43;;;22.83;;
3943;SDS011;1986;52.546;13.428;2023-08-31T12:23:35;23.30;;;21.70;;
3943;SDS011;1986;52.546;13.428;2023-08-31T12:26:02;24.83;;;23.13;;
3943;SDS011;1986;52.546;13.428;2023-08-31T12:28:33;23.73;;;22.23;;
3943;SDS011;1986;52.546;13.428;2023-08-31T12:31:01;23.70;;;22.20;;
3943;SDS011;1986;52.546;13.428;2023-08-31T12:33:29;27.20;;;25.50;;
3943;SDS011;1986;52.546;13.428;2023-08-31T12:35:56;24.20;;;22.60;;
3943;SDS011;1986;52.546;13.428;2023-08-31T12:38:24;24.70;;;23.10;;
3943;SDS011;1986;52.546;13.428;2023-08-31T12:40:51;24.03;;;22.43;;
3943;SDS011;1986;52.546;13.428;2023-08-31T12:43:25;24.37;;;22.77;;
3943;SDS011;1986;52.546;13.428;2023-08-31T12:45:54;25.07;;;23.47;;
3943;SDS011;1986;52.546;13.428;2023-08-31T12:48:23;24.93;;;23.07;;
3943;SDS011;1986;52.546;13.428;2023-08-31T12:50:51;24.40;;;22.70;;
3943;SDS011;1986;52.546;13.428;2023-08-31T12:53:20;24.60;;;22.90;;
3943;SDS011;1986;52.546;13.428;2023-08-31T12:55:48;24.50;;;22.77;;
3943;SDS011;1986;52.546;13.428;2023-08-31T12:58:16;24.10;;;22.30;;
3943;SDS011;1986;52.546;13.428;2023-08-31T13:00:43;26.23;;;24.43;;
3943;SDS011;1986;52.546;13.428;2023-08-31T13:03:12;24.10;;;22.30;;
3943;SDS011;1986;52.546;13.428;2023-08-31T13:05:41;25.03;;;22.97;;
3943;SDS011;1986;52.546;13.428;2023-08-31T13:08:08;24.97;;;23.17;;
3943;SDS011;1986;52.546;13.428;2023-08-31T13:10:35;25.27;;;23.47;;
3943;SDS011;1986;52.546;13.428;2023-08-31T13:13:03;24.53;;;22.83;;
3943;SDS011;1986;52.546;13.428;2023-08-31T13:15:31;24.43;;;22.63;;
3943;SDS011;1986;52.546;13.428;2023-08-31T13:17:58;25.03;;;23.33;;
3943;SDS011;1986;52.546;13.428;2023-08-31T13:20:26;25.03;;;23.23;;
3943;SDS011;1986;52.546;13.428;2023-08-31T13:22:55;25.40;;;23.60;;
3943;SDS011;1986;52.546;13.428;2023-08-31T13:25:22;28.93;;;22.87;;
3943;SDS011;1986;52.546;13.428;2023-08-31T13:27:50;24.10;;;22.30;;
3943;SDS011;1986;52.546;13.428;2023-08-31T13:30:20;24.90;;;23.00;;
3943;SDS011;1986;52.546;13.428;2023-08-31T13:32:51;28.67;;;26.47;;
3943;SDS011;1986;52.546;13.428;2023-08-31T13:35:18;25.03;;;23.13;;
3943;SDS011;1986;52.546;13.428;2023-08-31T13:37:45;25.80;;;23.80;;
3943;SDS011;1986;52.546;13.428;2023-08-31T13:40:14;25.63;;;23.73;;
3943;SDS011;1986;52.546;13.428;2023-08-31T13:42:52;25.10;;;23.20;;
3943;SDS011;1986;52.546;13.428;2023-08-31T13:45:22;26.07;;;24.10;;
3943;SDS011;1986;52.546;13.428;2023-08-31T13:47:49;27.10;;;25.10;;
3943;SDS011;1986;52.546;13.428;2023-08-31T13:50:16;26.17;;;24.27;;
3943;SDS011;1986;52.546;13.428;2023-08-31T13:52:44;25.90;;;24.00;;
3943;SDS011;1986;52.546;13.428;2023-08-31T13:55:11;26.30;;;24.40;;
3943;SDS011;1986;52.546;13.428;2023-08-31T13:57:41;26.10;;;24.10;;
3943;SDS011;1986;52.546;13.428;2023-08-31T14:00:08;25.53;;;23.63;;
3943;SDS011;1986;52.546;13.428;2023-08-31T14:02:36;25.20;;;23.20;;
3943;SDS011;1986;52.546;13.428;2023-08-31T14:05:04;29.70;;;27.10;;
3943;SDS011;1986;52.546;13.428;2023-08-31T14:07:33;29.07;;;26.43;;
3943;SDS011;1986;52.546;13.428;2023-08-31T14:10:01;25.80;;;23.90;;
3943;SDS011;1986;52.546;13.428;2023-08-31T14:12:31;27.80;;;25.33;;
3943;SDS011;1986;52.546;13.428;2023-08-31T14:15:00;27.00;;;25.00;;
3943;SDS011;1986;52.546;13.428;2023-08-31T14:17:32;26.63;;;24.63;;
3943;SDS011;1986;52.546;13.428;2023-08-31T14:19:59;27.37;;;25.37;;
3943;SDS011;1986;52.546;13.428;2023-08-31T14:22:30;27.53;;;25.63;;
3943;SDS011;1986;52.546;13.428;2023-08-31T14:24:58;26.63;;;24.63;;
3943;SDS011;1986;52.546;13.428;2023-08-31T14:27:29;26.53;;;24.53;;
3943;SDS011;1986;52.546;13.428;2023-08-31T14:30:00;27.60;;;25.37;;
3943;SDS011;1986;52.546;13.428;2023-08-31T14:32:28;26.77;;;24.87;;
3943;SDS011;1986;52.546;13.428;2023-08-31T14:34:55;29.10;;;25.70;;
3943;SDS011;1986;52.546;13.428;2023-08-31T14:37:25;26.90;;;24.90;;
3943;SDS011;1986;52.546;13.428;2023-08-31T14:39:55;26.20;;;24.30;;
3943;SDS011;1986;52.546;13.428;2023-08-31T14:42:24;26.10;;;24.20;;
3943;SDS011;1986;52.546;13.428;2023-08-31T14:44:51;27.20;;;25.10;;
3943;SDS011;1986;52.546;13.428;2023-08-31T14:47:21;26.30;;;24.40;;